Time,TemperatureF,DewpointF,PressureIn,WindDirection,WindDirectionDegrees,WindSpeedMPH,WindSpeedGustMPH,Humidity,HourlyPrecipIn,Conditions,Clouds,dailyrainin,SolarRadiationWatts/m^2,SoftwareType,DateUTC
2013-01-06 00:00:00,21.2,15.1,30.29,WSW,252,2.0,4.0,77,0.00,,OVC075,0.00,0.00,VWS V14.01,2013-01-06 07:00:00,
2013-01-06 00:30:00,21.2,14.8,30.27,WNW,285,1.0,5.0,76,0.00,,OVC075,0.00,0.00,VWS V14.01,2013-01-06 07:30:00,
2013-01-06 01:00:00,20.3,14.8,30.27,WSW,257,2.0,4.0,79,0.00,,OVC075,0.00,0.00,VWS V14.01,2013-01-06 08:00:00,
2013-01-06 01:30:00,23.1,16.1,30.25,SW,230,0.0,4.0,74,0.00,,OVC075,0.00,0.00,VWS V14.01,2013-01-06 08:30:00,
2013-01-06 02:00:00,17.3,11.1,30.28,WSW,250,2.0,5.0,76,0.00,,OVC075,0.00,0.00,VWS V14.01,2013-01-06 09:00:00,
2013-01-06 02:30:00,16.8,10.9,30.28,West,268,1.0,3.0,77,0.00,,OVC075,0.00,0.00,VWS V14.01,2013-01-06 09:30:00,
2013-01-06 03:00:00,18.8,13.4,30.26,West,267,0.0,3.0,79,0.00,,OVC075,0.00,0.00,VWS V14.01,2013-01-06 10:00:00,
2013-01-06 03:30:00,20.6,13.6,30.24,West,265,1.0,3.0,74,0.00,,OVC075,0.00,0.00,VWS V14.01,2013-01-06 10:30:00,
2013-01-06 04:00:00,22.0,13.4,30.23,West,273,2.0,4.0,69,0.00,,OVC075,0.00,0.00,VWS V14.01,2013-01-06 11:00:00,
2013-01-06 04:30:00,20.7,12.5,30.23,SSE,158,1.0,5.0,70,0.00,,OVC075,0.00,0.00,VWS V14.01,2013-01-06 11:30:00,
2013-01-06 05:00:00,23.6,15.3,30.21,ESE,105,1.0,5.0,70,0.00,,OVC075,0.00,0.00,VWS V14.01,2013-01-06 12:00:00,
2013-01-06 05:30:00,22.1,14.1,30.22,NW,322,0.0,5.0,71,0.00,,OVC075,0.00,0.00,VWS V14.01,2013-01-06 12:30:00,
2013-01-06 06:00:00,24.8,15.1,30.19,WSW,244,5.0,12.0,66,0.00,,OVC075,0.00,0.00,VWS V14.01,2013-01-06 13:00:00,
2013-01-06 06:30:00,22.7,13.7,30.19,South,181,1.0,7.0,68,0.00,,OVC075,0.00,0.00,VWS V14.01,2013-01-06 13:30:00,
2013-01-06 07:00:00,21.0,13.7,30.20,NE,50,4.0,12.0,73,0.00,,OVC075,0.00,0.00,VWS V14.01,2013-01-06 14:00:00,
2013-01-06 07:30:00,15.9,10.6,30.21,ENE,71,7.0,11.0,79,0.00,,OVC075,0.00,7.00,VWS V14.01,2013-01-06 14:30:00,
2013-01-06 08:00:00,16.9,11.8,30.19,NE,36,5.0,12.0,80,0.00,,OVC075,0.00,60.00,VWS V14.01,2013-01-06 15:00:00,
2013-01-06 08:30:00,17.5,12.4,30.17,NE,51,3.0,10.0,80,0.00,,OVC075,0.00,155.00,VWS V14.01,2013-01-06 15:30:00,
2013-01-06 09:00:00,21.9,14.9,30.14,SSE,163,6.0,12.0,74,0.00,,OVC075,0.00,160.00,VWS V14.01,2013-01-06 16:00:00,
2013-01-06 09:30:00,27.8,17.9,30.09,South,190,15.0,23.0,66,0.00,,OVC075,0.00,223.00,VWS V14.01,2013-01-06 16:30:00,
2013-01-06 10:00:00,32.8,20.5,30.05,South,171,12.0,25.0,60,0.00,,OVC075,0.00,183.00,VWS V14.01,2013-01-06 17:00:00,
2013-01-06 10:30:00,33.8,21.4,30.03,SE,145,15.0,23.0,60,0.00,,OVC075,0.00,193.00,VWS V14.01,2013-01-06 17:30:00,
2013-01-06 11:00:00,35.0,20.9,29.99,SSW,200,15.0,29.0,56,0.00,,OVC075,0.00,420.00,VWS V14.01,2013-01-06 18:00:00,
2013-01-06 11:30:00,35.0,22.1,29.96,South,173,19.0,26.0,59,0.00,,OVC075,0.00,255.00,VWS V14.01,2013-01-06 18:30:00,
2013-01-06 12:00:00,35.1,22.6,29.95,South,182,13.0,25.0,60,0.00,,OVC075,0.00,183.00,VWS V14.01,2013-01-06 19:00:00,
2013-01-06 12:30:00,39.9,24.6,29.92,SSW,208,4.0,22.0,54,0.00,,OVC075,0.00,221.00,VWS V14.01,2013-01-06 19:30:00,
2013-01-06 13:00:00,42.8,27.3,29.90,SSE,155,6.0,14.0,54,0.00,,OVC075,0.00,260.00,VWS V14.01,2013-01-06 20:00:00,
2013-01-06 13:30:00,48.9,29.0,29.87,NE,36,2.0,10.0,46,0.00,,OVC075,0.00,327.00,VWS V14.01,2013-01-06 20:30:00,
2013-01-06 14:00:00,54.0,27.0,29.86,WSW,244,2.0,4.0,35,0.00,,OVC075,0.00,149.00,VWS V14.01,2013-01-06 21:00:00,
2013-01-06 14:30:00,50.9,29.2,29.85,NE,49,0.0,5.0,43,0.00,,OVC075,0.00,155.00,VWS V14.01,2013-01-06 21:30:00,
2013-01-06 15:00:00,45.7,29.1,29.88,NNE,13,1.0,9.0,52,0.00,,OVC075,0.00,105.00,VWS V14.01,2013-01-06 22:00:00,
2013-01-06 15:30:00,43.0,28.4,29.89,NW,323,7.0,7.0,56,0.00,,OVC075,0.00,49.00,VWS V14.01,2013-01-06 22:30:00,
2013-01-06 16:00:00,39.1,27.2,29.91,ENE,73,2.0,7.0,62,0.00,,OVC075,0.00,21.00,VWS V14.01,2013-01-06 23:00:00,
2013-01-06 16:30:00,37.2,26.2,29.90,North,349,0.0,6.0,64,0.00,,OVC075,0.00,0.00,VWS V14.01,2013-01-06 23:30:00,
2013-01-06 17:00:00,34.6,26.2,29.92,SE,130,0.0,3.0,71,0.00,,OVC075,0.00,0.00,VWS V14.01,2013-01-07 00:00:00,
2013-01-06 17:30:00,32.8,23.8,29.92,SW,220,0.0,4.0,69,0.00,,OVC075,0.00,0.00,VWS V14.01,2013-01-07 00:30:00,
2013-01-06 18:00:00,32.6,19.1,29.93,SW,222,0.0,4.0,57,0.00,,OVC075,0.00,0.00,VWS V14.01,2013-01-07 01:00:00,
2013-01-06 18:30:00,32.2,17.9,29.95,SW,232,4.0,4.0,55,0.00,,OVC075,0.00,0.00,VWS V14.01,2013-01-07 01:30:00,
2013-01-06 19:00:00,32.8,17.6,29.95,SW,232,2.0,5.0,53,0.00,,OVC075,0.00,0.00,VWS V14.01,2013-01-07 02:00:00,
2013-01-06 19:30:00,29.1,17.0,29.97,West,268,0.0,4.0,60,0.00,,OVC075,0.00,0.00,VWS V14.01,2013-01-07 02:30:00,
2013-01-06 20:00:00,29.6,17.0,29.97,WSW,246,2.0,4.0,59,0.00,,OVC075,0.00,0.00,VWS V14.01,2013-01-07 03:00:00,
2013-01-06 20:30:00,28.4,16.7,29.95,West,277,2.0,4.0,61,0.00,,OVC075,0.00,0.00,VWS V14.01,2013-01-07 03:30:00,
2013-01-06 21:00:00,26.8,17.3,29.96,West,268,1.0,5.0,67,0.00,,OVC075,0.00,0.00,VWS V14.01,2013-01-07 04:00:00,
2013-01-06 21:30:00,28.4,17.8,29.91,West,261,0.0,4.0,64,0.00,,OVC075,0.00,0.00,VWS V14.01,2013-01-07 04:30:00,
2013-01-06 22:00:00,26.7,18.2,29.92,West,261,1.0,2.0,70,0.00,,OVC075,0.00,0.00,VWS V14.01,2013-01-07 05:00:00,
2013-01-06 22:30:00,28.8,19.6,29.92,West,262,1.0,3.0,68,0.00,,OVC075,0.00,0.00,VWS V14.01,2013-01-07 05:30:00,
2013-01-06 23:00:00,27.8,19.3,29.93,West,262,1.0,3.0,70,0.00,,OVC075,0.00,0.00,VWS V14.01,2013-01-07 06:00:00,
2013-01-06 23:30:00,30.1,20.8,29.92,West,262,2.0,3.0,68,0.00,,OVC075,0.00,0.00,VWS V14.01,2013-01-07 06:30:00,